createdAt,value
2023-04-26T00:01:08.626Z,55.00
2023-04-26T00:03:36.532Z,54.81
2023-04-26T00:06:06.632Z,54.96
2023-04-26T00:08:34.207Z,54.80
2023-04-26T00:11:03.236Z,54.87
2023-04-26T00:13:30.859Z,54.86
2023-04-26T00:15:58.516Z,54.75
2023-04-26T00:18:26.163Z,55.04
2023-04-26T00:20:53.756Z,54.82
2023-04-26T00:23:21.477Z,55.33
2023-04-26T00:25:49.053Z,55.29
2023-04-26T00:28:17.974Z,55.12
2023-04-26T00:30:51.674Z,54.95
2023-04-26T00:33:22.445Z,55.41
2023-04-26T00:35:50.127Z,55.41
2023-04-26T00:38:17.744Z,55.41
2023-04-26T00:40:45.450Z,55.48
2023-04-26T00:43:13.026Z,55.60
2023-04-26T00:45:42.000Z,55.23
2023-04-26T00:48:09.617Z,55.31
2023-04-26T00:50:37.324Z,55.55
2023-04-26T00:53:05.132Z,55.33
2023-04-26T00:55:32.809Z,55.41
2023-04-26T00:58:00.577Z,55.37
2023-04-26T01:00:29.676Z,55.63
2023-04-26T01:02:59.596Z,55.64
2023-04-26T01:05:27.496Z,55.51
2023-04-26T01:07:55.082Z,55.49
2023-04-26T01:10:22.876Z,55.62
2023-04-26T01:12:51.926Z,55.65
2023-04-26T01:15:19.551Z,55.80
2023-04-26T01:17:47.322Z,55.58
2023-04-26T01:20:16.322Z,55.82
2023-04-26T01:22:45.701Z,55.64
2023-04-26T01:25:13.483Z,55.73
2023-04-26T01:27:41.766Z,55.75
2023-04-26T01:30:10.085Z,55.80
2023-04-26T01:32:37.770Z,55.55
2023-04-26T01:35:06.250Z,55.59
2023-04-26T01:37:33.895Z,55.80
2023-04-26T01:40:03.009Z,55.65
2023-04-26T01:42:31.359Z,55.70
2023-04-26T01:45:00.697Z,55.61
2023-04-26T01:47:48.336Z,55.28
2023-04-26T01:50:16.288Z,55.73
2023-04-26T01:52:43.920Z,55.97
2023-04-26T01:55:13.976Z,55.78
2023-04-26T01:57:42.718Z,56.00
2023-04-26T02:00:11.388Z,55.79
2023-04-26T02:02:41.858Z,56.04
2023-04-26T02:05:10.425Z,56.32
2023-04-26T02:07:37.982Z,55.90
2023-04-26T02:10:05.963Z,56.32
2023-04-26T02:12:34.913Z,56.05
2023-04-26T02:15:02.573Z,56.04
2023-04-26T02:17:30.733Z,56.19
2023-04-26T02:19:59.354Z,56.03
2023-04-26T02:22:26.994Z,56.34
2023-04-26T02:24:54.669Z,55.94
2023-04-26T02:27:27.766Z,56.41
2023-04-26T02:29:56.924Z,55.94
2023-04-26T02:32:24.510Z,56.37
2023-04-26T02:34:52.081Z,56.21
2023-04-26T02:37:21.874Z,56.30
2023-04-26T02:39:50.870Z,56.40
2023-04-26T02:42:18.512Z,56.51
2023-04-26T02:44:47.269Z,56.33
2023-04-26T02:47:16.693Z,55.97
2023-04-26T02:49:44.297Z,56.38
2023-04-26T02:52:11.892Z,56.29
2023-04-26T02:54:39.488Z,56.42
2023-04-26T02:57:08.267Z,56.51
2023-04-26T02:59:35.893Z,56.38
2023-04-26T03:02:03.658Z,56.44
2023-04-26T03:04:34.000Z,56.21
2023-04-26T03:07:01.916Z,56.19
2023-04-26T03:09:29.711Z,56.69
2023-04-26T03:11:57.407Z,56.50
2023-04-26T03:14:25.052Z,56.50
2023-04-26T03:16:53.344Z,56.36
2023-04-26T03:19:21.273Z,56.15
2023-04-26T03:21:50.309Z,56.47
2023-04-26T03:24:18.309Z,56.69
2023-04-26T03:26:46.253Z,56.75
2023-04-26T03:29:14.084Z,56.69
2023-04-26T03:31:41.660Z,56.52
2023-04-26T03:34:09.447Z,56.55
2023-04-26T03:36:37.213Z,56.58
2023-04-26T03:39:07.442Z,56.87
2023-04-26T03:41:39.340Z,56.59
2023-04-26T03:44:08.217Z,56.73
2023-04-26T03:46:35.890Z,56.79
2023-04-26T03:49:03.622Z,56.59
2023-04-26T03:51:31.422Z,56.83
2023-04-26T03:53:59.287Z,57.00
2023-04-26T03:56:28.246Z,56.48
2023-04-26T03:58:55.989Z,56.96
2023-04-26T04:01:25.832Z,56.74
2023-04-26T04:03:53.811Z,56.82
2023-04-26T04:06:21.834Z,56.74
2023-04-26T04:08:49.855Z,56.94
2023-04-26T04:11:17.637Z,56.71
2023-04-26T04:13:46.613Z,56.98
2023-04-26T04:16:14.295Z,56.28
2023-04-26T04:18:42.055Z,56.88
2023-04-26T04:21:09.729Z,56.50
2023-04-26T04:23:37.749Z,56.89
2023-04-26T04:26:10.060Z,57.11
2023-04-26T04:28:38.646Z,57.26
2023-04-26T04:31:09.232Z,57.02
2023-04-26T04:33:37.281Z,56.83
2023-04-26T04:36:06.660Z,57.28
2023-04-26T04:38:34.324Z,57.00
2023-04-26T04:41:04.532Z,57.17
2023-04-26T04:43:32.946Z,56.80
2023-04-26T04:46:00.682Z,56.87
2023-04-26T04:48:29.991Z,56.97
2023-04-26T04:50:58.351Z,57.29
2023-04-26T04:53:25.991Z,56.96
2023-04-26T04:55:53.588Z,57.15
2023-04-26T04:58:22.389Z,56.77
2023-04-26T05:00:51.412Z,56.75
2023-04-26T05:03:26.581Z,56.63
2023-04-26T05:05:55.768Z,56.68
2023-04-26T05:08:23.378Z,56.84
2023-04-26T05:10:51.542Z,56.68
2023-04-26T05:13:19.177Z,57.09
2023-04-26T05:15:46.885Z,56.72
2023-04-26T05:18:14.492Z,56.96
2023-04-26T05:20:42.582Z,56.78
2023-04-26T05:23:11.984Z,56.85
2023-04-26T05:25:39.612Z,56.40
2023-04-26T05:28:30.059Z,56.70
2023-04-26T05:31:17.992Z,56.50
2023-04-26T05:34:05.022Z,56.28
2023-04-26T05:36:38.497Z,56.20
2023-04-26T05:39:08.388Z,55.77
2023-04-26T05:41:36.204Z,56.22
2023-04-26T05:44:04.143Z,56.13
2023-04-26T05:46:32.659Z,55.90
2023-04-26T05:49:00.278Z,56.01
2023-04-26T05:51:29.054Z,53.94
2023-04-26T05:53:57.464Z,48.62
2023-04-26T05:56:26.787Z,47.02
2023-04-26T05:58:54.459Z,46.62
2023-04-26T06:01:22.027Z,46.22
2023-04-26T06:03:51.394Z,46.18
2023-04-26T06:06:22.384Z,45.60
2023-04-26T06:08:49.994Z,47.72
2023-04-26T06:11:17.695Z,49.61
2023-04-26T06:13:46.698Z,50.06
2023-04-26T06:16:15.349Z,50.24
2023-04-26T06:18:43.294Z,50.51
2023-04-26T06:21:10.938Z,50.82
2023-04-26T06:23:38.482Z,51.29
2023-04-26T06:26:06.136Z,51.93
2023-04-26T06:28:33.653Z,52.14
2023-04-26T06:31:03.152Z,51.51
2023-04-26T06:33:31.845Z,51.74
2023-04-26T06:35:59.727Z,51.71
2023-04-26T06:38:27.423Z,52.14
2023-04-26T06:40:55.067Z,52.14
2023-04-26T06:43:22.692Z,52.44
2023-04-26T06:46:23.743Z,52.66
2023-04-26T06:48:55.117Z,52.81
2023-04-26T06:51:22.752Z,52.72
2023-04-26T06:53:50.531Z,52.29
2023-04-26T06:56:18.756Z,52.56
2023-04-26T06:58:59.046Z,52.72
2023-04-26T07:01:29.276Z,52.85
2023-04-26T07:03:58.391Z,52.80
2023-04-26T07:06:27.025Z,52.73
2023-04-26T07:08:54.832Z,52.82
2023-04-26T07:11:24.617Z,52.72
2023-04-26T07:13:53.838Z,52.77
2023-04-26T07:16:21.875Z,52.76
2023-04-26T07:18:51.909Z,52.77
2023-04-26T07:21:22.952Z,52.84
2023-04-26T07:23:51.559Z,52.83
2023-04-26T07:26:19.265Z,52.97
2023-04-26T07:28:46.893Z,52.87
2023-04-26T07:31:14.446Z,53.00
2023-04-26T07:33:42.022Z,53.16
2023-04-26T07:36:11.386Z,53.17
2023-04-26T07:38:39.020Z,53.00
2023-04-26T07:41:06.594Z,53.22
2023-04-26T07:43:34.179Z,53.18
2023-04-26T07:46:02.311Z,53.18
2023-04-26T07:48:30.334Z,53.10
2023-04-26T07:50:58.104Z,53.14
2023-04-26T07:53:27.151Z,53.13
2023-04-26T07:55:54.831Z,53.20
2023-04-26T07:58:22.514Z,53.15
2023-04-26T08:00:50.835Z,53.17
2023-04-26T08:03:18.854Z,53.17
2023-04-26T08:05:47.336Z,53.18
2023-04-26T08:08:16.586Z,53.48
2023-04-26T08:10:46.715Z,53.23
2023-04-26T08:13:14.309Z,53.32
2023-04-26T08:15:42.044Z,53.29
2023-04-26T08:18:09.691Z,53.24
2023-04-26T08:20:37.284Z,53.20
2023-04-26T08:23:04.866Z,53.15
2023-04-26T08:25:34.650Z,53.20
2023-04-26T08:28:04.989Z,53.35
2023-04-26T08:30:32.781Z,53.39
2023-04-26T08:33:01.278Z,53.37
2023-04-26T08:35:28.900Z,53.36
2023-04-26T08:37:56.754Z,53.16
2023-04-26T08:40:24.875Z,53.29
2023-04-26T08:42:53.533Z,53.20
2023-04-26T08:45:22.555Z,53.37
2023-04-26T08:47:50.452Z,53.20
2023-04-26T08:50:19.946Z,53.19
2023-04-26T08:52:48.469Z,53.28
2023-04-26T08:55:16.427Z,53.26
2023-04-26T08:57:44.074Z,53.32
2023-04-26T09:00:13.534Z,53.24
2023-04-26T09:02:43.092Z,53.16
2023-04-26T09:05:11.916Z,53.08
2023-04-26T09:07:41.381Z,53.17
2023-04-26T09:10:09.670Z,52.99
2023-04-26T09:12:37.485Z,53.21
2023-04-26T09:15:07.123Z,53.04
2023-04-26T09:17:35.909Z,53.06
2023-04-26T09:20:18.144Z,53.10
2023-04-26T09:22:45.933Z,53.15
2023-04-26T09:25:14.420Z,53.08
2023-04-26T09:27:43.174Z,53.19
2023-04-26T09:30:11.834Z,53.20
2023-04-26T09:32:46.415Z,53.09
2023-04-26T09:35:28.506Z,53.15
2023-04-26T09:38:00.455Z,53.09
2023-04-26T09:40:32.143Z,52.96
2023-04-26T09:43:00.265Z,52.95
2023-04-26T09:45:28.112Z,53.02
2023-04-26T09:47:56.171Z,53.01
2023-04-26T09:50:29.010Z,52.97
2023-04-26T09:52:57.055Z,52.95
2023-04-26T09:55:34.896Z,53.10
2023-04-26T09:58:08.864Z,52.87
2023-04-26T10:00:36.992Z,52.88
2023-04-26T10:03:04.925Z,52.97
2023-04-26T10:05:34.531Z,52.95
2023-04-26T10:08:03.577Z,52.99
2023-04-26T10:10:31.762Z,53.01
2023-04-26T10:12:59.290Z,52.85
2023-04-26T10:15:27.042Z,52.92
2023-04-26T10:17:54.648Z,52.98
2023-04-26T10:20:22.345Z,53.02
2023-04-26T10:22:53.058Z,52.99
2023-04-26T10:25:21.077Z,52.96
2023-04-26T10:27:51.762Z,52.86
2023-04-26T10:30:20.055Z,52.95
2023-04-26T10:33:13.812Z,52.84
2023-04-26T10:36:00.267Z,52.81
2023-04-26T10:38:29.232Z,52.96
2023-04-26T10:40:58.396Z,52.90
2023-04-26T10:43:29.168Z,52.99
2023-04-26T10:45:57.296Z,52.92
2023-04-26T10:48:29.619Z,52.91
2023-04-26T10:51:08.862Z,52.88
2023-04-26T10:53:59.205Z,52.96
2023-04-26T10:56:45.527Z,52.83
2023-04-26T10:59:33.348Z,52.80
2023-04-26T11:02:04.243Z,52.90
2023-04-26T11:04:46.704Z,52.83
2023-04-26T11:07:14.740Z,53.09
2023-04-26T11:09:49.783Z,52.92
2023-04-26T11:12:17.469Z,52.87
2023-04-26T11:14:45.611Z,52.93
2023-04-26T11:17:13.369Z,52.67
2023-04-26T11:19:42.370Z,52.80
2023-04-26T11:22:10.024Z,52.78
2023-04-26T11:24:38.801Z,52.83
2023-04-26T11:27:10.457Z,52.72
2023-04-26T11:29:38.203Z,52.74
2023-04-26T11:32:05.985Z,53.10
2023-04-26T11:34:34.348Z,52.91
2023-04-26T11:37:02.845Z,52.73
2023-04-26T11:39:30.473Z,52.81
2023-04-26T11:41:58.137Z,52.75
2023-04-26T11:44:27.080Z,52.90
2023-04-26T11:46:54.692Z,52.91
2023-04-26T11:49:22.299Z,53.00
2023-04-26T11:51:50.466Z,53.07
2023-04-26T11:54:31.518Z,52.92
2023-04-26T11:56:59.152Z,52.91
2023-04-26T11:59:29.116Z,52.79
2023-04-26T12:01:56.817Z,52.86
2023-04-26T12:04:29.979Z,52.91
2023-04-26T12:06:58.198Z,52.99
2023-04-26T12:09:26.674Z,53.04
2023-04-26T12:11:59.200Z,52.85
2023-04-26T12:14:32.802Z,52.76
2023-04-26T12:17:01.857Z,52.73
2023-04-26T12:19:29.506Z,52.60
2023-04-26T12:21:58.640Z,52.77
2023-04-26T12:24:26.848Z,52.76
2023-04-26T12:26:54.418Z,52.75
2023-04-26T12:29:23.420Z,52.78
2023-04-26T12:31:52.538Z,52.70
2023-04-26T12:34:20.225Z,52.71
2023-04-26T12:36:47.853Z,52.91
2023-04-26T12:39:15.828Z,53.01
2023-04-26T12:41:43.507Z,52.98
2023-04-26T12:44:11.339Z,52.96
2023-04-26T12:46:39.111Z,52.68
2023-04-26T12:49:08.247Z,52.72
2023-04-26T12:51:35.948Z,52.63
2023-04-26T12:54:03.559Z,52.79
2023-04-26T12:56:31.159Z,52.78
2023-04-26T12:58:58.732Z,52.62
2023-04-26T13:01:27.306Z,52.74
2023-04-26T13:03:56.611Z,52.84
2023-04-26T13:06:27.730Z,53.34
2023-04-26T13:08:55.456Z,53.24
2023-04-26T13:11:23.370Z,53.18
2023-04-26T13:13:51.241Z,53.00
2023-04-26T13:16:18.829Z,53.04
2023-04-26T13:18:46.532Z,52.89
2023-04-26T13:21:14.100Z,52.94
2023-04-26T13:23:43.117Z,52.96
2023-04-26T13:26:10.747Z,52.92
2023-04-26T13:28:38.491Z,52.89
2023-04-26T13:31:06.545Z,53.03
2023-04-26T13:33:34.229Z,53.04
2023-04-26T13:36:01.777Z,52.90
2023-04-26T13:38:30.705Z,52.89
2023-04-26T13:41:01.290Z,52.83
2023-04-26T13:43:29.156Z,53.00
2023-04-26T13:45:56.742Z,52.89
2023-04-26T13:48:25.948Z,52.94
2023-04-26T13:50:53.577Z,53.10
2023-04-26T13:53:21.107Z,52.91
2023-04-26T13:55:48.770Z,52.88
2023-04-26T13:58:18.141Z,53.08
2023-04-26T14:00:45.986Z,52.77
2023-04-26T14:03:13.885Z,53.03
2023-04-26T14:05:42.122Z,52.81
2023-04-26T14:08:10.169Z,52.73
2023-04-26T14:10:38.144Z,52.63
2023-04-26T14:13:05.962Z,52.84
2023-04-26T14:15:34.952Z,52.82
2023-04-26T14:18:02.708Z,52.82
2023-04-26T14:20:30.255Z,52.69
2023-04-26T14:22:57.821Z,52.79
2023-04-26T14:25:26.627Z,52.84
2023-04-26T14:27:54.189Z,52.91
2023-04-26T14:30:21.895Z,53.05
2023-04-26T14:32:50.944Z,52.68
2023-04-26T14:35:19.076Z,52.89
2023-04-26T14:37:46.771Z,52.70
2023-04-26T14:40:14.604Z,52.68
2023-04-26T14:42:45.695Z,52.58
2023-04-26T14:45:13.517Z,52.72
2023-04-26T14:47:41.382Z,52.85
2023-04-26T14:50:11.292Z,53.21
2023-04-26T14:52:39.082Z,53.24
2023-04-26T14:55:17.862Z,53.43
2023-04-26T14:57:45.517Z,53.39
2023-04-26T15:00:16.842Z,53.45
2023-04-26T15:02:44.579Z,52.92
2023-04-26T15:05:13.677Z,52.84
2023-04-26T15:07:41.656Z,52.76
2023-04-26T15:10:09.776Z,52.69
2023-04-26T15:12:37.365Z,52.59
2023-04-26T15:15:05.249Z,52.70
2023-04-26T15:17:32.980Z,52.81
2023-04-26T15:20:00.723Z,52.50
2023-04-26T15:22:30.308Z,52.73
2023-04-26T15:24:57.878Z,52.67
2023-04-26T15:27:25.536Z,52.90
2023-04-26T15:29:53.124Z,52.78
2023-04-26T15:32:20.708Z,52.76
2023-04-26T15:34:48.578Z,52.98
2023-04-26T15:37:16.167Z,52.63
2023-04-26T15:39:45.063Z,52.79
2023-04-26T15:42:12.628Z,53.07
2023-04-26T15:44:40.223Z,52.84
2023-04-26T15:47:07.815Z,52.71
2023-04-26T15:49:36.249Z,52.92
2023-04-26T15:52:05.326Z,52.70
2023-04-26T15:54:32.921Z,52.65
2023-04-26T15:57:03.902Z,52.91
2023-04-26T15:59:31.660Z,52.97
2023-04-26T16:01:59.263Z,52.70
2023-04-26T16:04:27.568Z,52.40
2023-04-26T16:06:56.729Z,52.88
2023-04-26T16:09:25.968Z,52.79
2023-04-26T16:11:53.745Z,52.64
2023-04-26T16:14:22.974Z,52.57
2023-04-26T16:16:50.637Z,52.85
2023-04-26T16:19:18.329Z,52.74
2023-04-26T16:21:47.010Z,53.00
2023-04-26T16:24:17.820Z,53.39
2023-04-26T16:26:46.395Z,53.46
2023-04-26T16:29:14.228Z,53.80
2023-04-26T16:31:45.600Z,53.78
2023-04-26T16:34:13.273Z,53.81
2023-04-26T16:36:40.868Z,53.81
2023-04-26T16:39:08.687Z,53.78
2023-04-26T16:41:36.453Z,53.69
2023-04-26T16:44:04.102Z,53.64
2023-04-26T16:46:32.347Z,53.59
2023-04-26T16:49:01.479Z,53.42
2023-04-26T16:51:29.202Z,53.43
2023-04-26T16:53:57.052Z,53.39
2023-04-26T16:56:24.677Z,53.27
2023-04-26T16:58:52.523Z,53.38
2023-04-26T17:01:20.923Z,53.23
2023-04-26T17:03:48.765Z,53.14
2023-04-26T17:06:17.917Z,53.22
2023-04-26T17:08:45.600Z,53.24
2023-04-26T17:11:15.049Z,53.17
2023-04-26T17:13:42.772Z,53.22
2023-04-26T17:16:10.562Z,53.18
2023-04-26T17:18:38.207Z,53.03
2023-04-26T17:21:06.905Z,53.03
2023-04-26T17:23:35.879Z,52.99
2023-04-26T17:26:04.298Z,53.08
2023-04-26T17:28:33.029Z,53.08
2023-04-26T17:31:00.654Z,53.15
2023-04-26T17:33:28.355Z,53.14
2023-04-26T17:35:56.140Z,53.05
2023-04-26T17:38:23.701Z,53.08
2023-04-26T17:40:54.608Z,53.02
2023-04-26T17:43:22.372Z,52.98
2023-04-26T17:45:50.034Z,53.15
2023-04-26T17:48:18.228Z,52.89
2023-04-26T17:50:46.047Z,52.92
2023-04-26T17:53:13.683Z,52.92
2023-04-26T17:55:41.278Z,52.83
2023-04-26T17:58:10.199Z,52.95
2023-04-26T18:00:37.788Z,52.85
2023-04-26T18:03:06.410Z,52.69
2023-04-26T18:05:34.143Z,52.74
2023-04-26T18:08:01.791Z,52.75
2023-04-26T18:10:29.483Z,52.91
2023-04-26T18:12:57.128Z,52.99
2023-04-26T18:15:26.267Z,52.84
2023-04-26T18:17:54.329Z,52.84
2023-04-26T18:20:22.343Z,52.94
2023-04-26T18:22:50.575Z,52.95
2023-04-26T18:25:18.427Z,52.94
2023-04-26T18:27:46.982Z,52.88
2023-04-26T18:30:14.685Z,52.86
2023-04-26T18:32:43.638Z,52.84
2023-04-26T18:35:11.771Z,52.92
2023-04-26T18:37:39.666Z,52.84
2023-04-26T18:40:08.263Z,52.85
2023-04-26T18:42:36.606Z,52.75
2023-04-26T18:45:04.662Z,52.91
2023-04-26T18:47:32.296Z,52.95
2023-04-26T18:50:01.738Z,52.80
2023-04-26T18:52:29.336Z,52.84
2023-04-26T18:54:57.496Z,52.94
2023-04-26T18:57:26.653Z,52.79
2023-04-26T18:59:56.580Z,52.84
2023-04-26T19:02:24.313Z,52.93
2023-04-26T19:04:52.171Z,53.01
2023-04-26T19:07:21.236Z,52.86
2023-04-26T19:09:54.148Z,52.87
2023-04-26T19:12:22.713Z,52.69
2023-04-26T19:14:50.284Z,52.66
2023-04-26T19:17:17.972Z,52.93
2023-04-26T19:19:45.685Z,52.86
2023-04-26T19:22:13.401Z,52.67
2023-04-26T19:24:42.418Z,52.92
2023-04-26T19:27:09.988Z,52.48
2023-04-26T19:29:38.696Z,52.81
2023-04-26T19:32:07.095Z,52.71
2023-04-26T19:34:34.897Z,52.66
2023-04-26T19:37:02.909Z,52.61
2023-04-26T19:39:30.630Z,52.73
2023-04-26T19:42:01.278Z,52.69
2023-04-26T19:44:28.920Z,52.81
2023-04-26T19:46:56.675Z,52.69
2023-04-26T19:49:24.460Z,52.69
2023-04-26T19:51:52.687Z,52.79
2023-04-26T19:54:20.267Z,52.67
2023-04-26T19:56:47.873Z,52.77
2023-04-26T19:59:16.874Z,52.57
2023-04-26T20:01:44.525Z,52.77
2023-04-26T20:04:12.266Z,52.88
2023-04-26T20:06:39.957Z,53.00
2023-04-26T20:09:07.931Z,52.95
2023-04-26T20:11:35.777Z,53.02
2023-04-26T20:14:03.355Z,52.85
2023-04-26T20:16:32.508Z,52.92
2023-04-26T20:19:00.106Z,52.85
2023-04-26T20:21:29.069Z,52.91
2023-04-26T20:23:57.043Z,52.87
2023-04-26T20:26:25.055Z,53.00
2023-04-26T20:28:52.730Z,52.94
2023-04-26T20:31:20.523Z,52.97
2023-04-26T20:33:49.602Z,53.05
2023-04-26T20:36:17.720Z,52.94
2023-04-26T20:38:45.393Z,53.08
2023-04-26T20:41:13.062Z,53.02
2023-04-26T20:43:41.782Z,52.80
2023-04-26T20:46:09.511Z,53.08
2023-04-26T20:48:37.396Z,52.88
2023-04-26T20:51:08.502Z,52.93
2023-04-26T20:53:36.345Z,53.09
2023-04-26T20:56:03.992Z,52.84
2023-04-26T20:58:31.580Z,53.17
2023-04-26T21:00:59.387Z,53.12
2023-04-26T21:03:27.280Z,53.16
2023-04-26T21:05:55.065Z,53.09
2023-04-26T21:08:24.015Z,53.09
2023-04-26T21:10:51.636Z,53.02
2023-04-26T21:13:20.254Z,53.16
2023-04-26T21:15:48.175Z,52.98
2023-04-26T21:18:15.911Z,52.97
2023-04-26T21:20:43.502Z,53.13
2023-04-26T21:23:11.150Z,52.97
2023-04-26T21:25:40.081Z,53.12
2023-04-26T21:28:08.080Z,53.28
2023-04-26T21:30:36.591Z,53.29
2023-04-26T21:33:04.260Z,53.35
2023-04-26T21:35:31.839Z,53.35
2023-04-26T21:37:59.316Z,53.47
2023-04-26T21:40:26.893Z,53.36
2023-04-26T21:43:04.955Z,53.41
2023-04-26T21:45:33.670Z,53.27
2023-04-26T21:48:01.343Z,53.25
2023-04-26T21:50:28.922Z,53.40
2023-04-26T21:52:56.481Z,53.73
2023-04-26T21:55:24.074Z,53.69
2023-04-26T21:57:51.666Z,54.10
2023-04-26T22:00:20.990Z,54.08
2023-04-26T22:02:48.822Z,54.02
2023-04-26T22:05:16.512Z,54.20
2023-04-26T22:07:44.226Z,54.14
2023-04-26T22:10:11.921Z,53.85
2023-04-26T22:12:39.936Z,54.04
2023-04-26T22:15:08.224Z,54.31
2023-04-26T22:17:37.574Z,54.24
2023-04-26T22:20:05.839Z,54.45
2023-04-26T22:22:33.401Z,54.93
2023-04-26T22:25:01.038Z,55.44
2023-04-26T22:27:29.137Z,56.04
2023-04-26T22:29:56.737Z,56.51
2023-04-26T22:32:24.355Z,57.07
2023-04-26T22:34:53.349Z,57.58
2023-04-26T22:37:21.738Z,57.55
2023-04-26T22:39:49.768Z,58.00
2023-04-26T22:42:17.383Z,57.68
2023-04-26T22:44:44.915Z,58.03
2023-04-26T22:47:12.448Z,58.00
2023-04-26T22:49:39.961Z,58.38
2023-04-26T22:52:17.049Z,58.49
2023-04-26T22:54:51.780Z,58.43
2023-04-26T22:57:19.386Z,58.26
2023-04-26T22:59:46.974Z,58.37
2023-04-26T23:02:15.642Z,58.53
2023-04-26T23:04:43.405Z,58.40
2023-04-26T23:07:12.371Z,58.74
2023-04-26T23:09:40.030Z,58.48
2023-04-26T23:12:07.700Z,58.41
2023-04-26T23:14:35.379Z,58.40
2023-04-26T23:17:03.622Z,58.45
2023-04-26T23:19:31.465Z,58.54
2023-04-26T23:21:59.134Z,58.40
2023-04-26T23:24:28.739Z,58.19
2023-04-26T23:26:56.391Z,58.17
2023-04-26T23:29:23.975Z,57.96
2023-04-26T23:31:51.678Z,58.34
2023-04-26T23:34:19.323Z,57.87
2023-04-26T23:36:46.886Z,58.01
2023-04-26T23:39:14.701Z,58.08
2023-04-26T23:41:43.926Z,57.85
2023-04-26T23:44:11.515Z,57.77
2023-04-26T23:46:42.247Z,57.78
2023-04-26T23:49:10.034Z,58.03
2023-04-26T23:51:37.741Z,57.92
2023-04-26T23:54:05.325Z,57.92
2023-04-26T23:56:32.972Z,58.00
2023-04-26T23:59:01.955Z,58.02
